createdAt,value
2022-12-09T00:04:35.297Z,99076.06
2022-12-09T00:09:38.768Z,99085.80
2022-12-09T00:14:42.072Z,99088.48
2022-12-09T00:19:46.303Z,99089.25
2022-12-09T00:24:49.768Z,99094.79
2022-12-09T00:29:53.130Z,99102.13
2022-12-09T00:34:56.334Z,99107.66
2022-12-09T00:39:59.750Z,99119.80
2022-12-09T00:45:03.165Z,99117.57
2022-12-09T00:50:07.629Z,99119.93
2022-12-09T00:55:11.308Z,99124.30
2022-12-09T01:00:15.294Z,99134.91
2022-12-09T01:05:18.580Z,99140.25
2022-12-09T01:10:22.326Z,99138.19
2022-12-09T01:15:25.708Z,99141.73
2022-12-09T01:20:29.095Z,99144.33
2022-12-09T01:25:32.839Z,99137.72
2022-12-09T01:30:36.575Z,99129.32
2022-12-09T01:35:41.696Z,99133.98
2022-12-09T01:40:47.152Z,99142.80
2022-12-09T01:45:51.282Z,99137.88
2022-12-09T01:51:02.289Z,99143.83
2022-12-09T01:56:20.128Z,99149.27
2022-12-09T02:01:24.029Z,99148.21
2022-12-09T02:06:28.191Z,99148.27
2022-12-09T02:12:19.776Z,99146.76
2022-12-09T02:17:34.341Z,99142.61
2022-12-09T02:22:45.863Z,99143.64
2022-12-09T02:28:28.366Z,99153.14
2022-12-09T02:33:56.375Z,99149.42
2022-12-09T02:39:00.555Z,99154.97
2022-12-09T02:44:10.154Z,99154.80
2022-12-09T02:49:15.952Z,99152.14
2022-12-09T02:54:20.762Z,99154.61
2022-12-09T02:59:24.345Z,99152.55
2022-12-09T03:04:30.541Z,99158.00
2022-12-09T03:09:36.937Z,99160.16
2022-12-09T03:14:47.221Z,99166.64
2022-12-09T03:19:57.812Z,99167.08
2022-12-09T03:25:07.116Z,99163.91
2022-12-09T03:30:12.034Z,99165.38
2022-12-09T03:35:21.418Z,99170.64
2022-12-09T03:40:28.576Z,99173.04
2022-12-09T03:45:33.198Z,99176.16
2022-12-09T03:50:46.811Z,99175.66
2022-12-09T03:56:23.737Z,99176.34
2022-12-09T04:01:29.040Z,99178.20
2022-12-09T04:06:32.374Z,99176.77
2022-12-09T04:11:35.814Z,99176.10
2022-12-09T04:16:39.639Z,99173.11
2022-12-09T04:21:44.044Z,99181.16
2022-12-09T04:26:47.666Z,99179.04
2022-12-09T04:31:51.137Z,99181.57
2022-12-09T04:36:54.943Z,99180.59
2022-12-09T04:41:58.524Z,99187.38
2022-12-09T04:47:02.015Z,99186.52
2022-12-09T04:52:06.101Z,99191.21
2022-12-09T04:57:09.845Z,99193.04
2022-12-09T05:02:13.679Z,99194.20
2022-12-09T05:07:17.297Z,99201.27
2022-12-09T05:12:20.962Z,99197.39
2022-12-09T05:17:24.778Z,99200.05
2022-12-09T05:22:28.757Z,99200.79
2022-12-09T05:27:32.387Z,99201.39
2022-12-09T05:32:36.259Z,99202.33
2022-12-09T05:37:39.666Z,99201.02
2022-12-09T05:42:43.061Z,99196.23
2022-12-09T05:47:46.575Z,99193.61
2022-12-09T05:52:50.681Z,99197.17
2022-12-09T05:57:55.118Z,99205.60
2022-12-09T06:02:58.560Z,99205.32
2022-12-09T06:08:06.645Z,99208.01
2022-12-09T06:13:11.056Z,99211.21
2022-12-09T06:18:14.561Z,99206.62
2022-12-09T06:23:18.325Z,99204.64
2022-12-09T06:28:22.142Z,99204.08
2022-12-09T06:33:53.171Z,99213.42
2022-12-09T06:38:49.685Z,99221.16
2022-12-09T06:43:53.270Z,99227.86
2022-12-09T06:48:57.525Z,99227.80
2022-12-09T06:54:01.083Z,99232.32
2022-12-09T06:59:09.260Z,99237.13
2022-12-09T07:04:15.020Z,99236.06
2022-12-09T07:09:20.933Z,99242.67
2022-12-09T07:14:24.742Z,99242.99
2022-12-09T07:19:31.236Z,99235.78
2022-12-09T07:24:34.736Z,99233.52
2022-12-09T07:29:38.414Z,99236.77
2022-12-09T07:34:43.148Z,99240.02
2022-12-09T07:39:46.735Z,99241.48
2022-12-09T07:44:50.393Z,99245.34
2022-12-09T07:49:54.000Z,99252.63
2022-12-09T07:55:00.027Z,99251.52
2022-12-09T08:00:05.553Z,99255.86
2022-12-09T08:05:10.394Z,99253.55
2022-12-09T08:10:14.204Z,99253.19
2022-12-09T08:15:19.655Z,99254.88
2022-12-09T08:20:28.754Z,99258.45
2022-12-09T08:25:33.219Z,99266.91
2022-12-09T08:30:37.732Z,99265.28
2022-12-09T08:35:41.729Z,99266.95
2022-12-09T08:40:45.655Z,99272.34
2022-12-09T08:45:49.405Z,99276.63
2022-12-09T08:50:55.016Z,99271.49
2022-12-09T08:55:59.118Z,99279.59
2022-12-09T09:01:02.430Z,99282.30
2022-12-09T09:06:10.753Z,99280.63
2022-12-09T09:11:20.584Z,99283.73
2022-12-09T09:16:26.494Z,99274.88
2022-12-09T09:21:29.923Z,99272.41
2022-12-09T09:26:33.715Z,99267.39
2022-12-09T09:31:37.543Z,99266.22
2022-12-09T09:36:41.571Z,99263.69
2022-12-09T09:42:07.414Z,99260.52
2022-12-09T09:47:44.100Z,99260.55
2022-12-09T09:52:48.004Z,99257.45
2022-12-09T09:58:33.230Z,99261.54
2022-12-09T10:03:59.074Z,99261.90
2022-12-09T10:09:41.832Z,99269.48
2022-12-09T10:14:57.259Z,99270.78
2022-12-09T10:20:28.901Z,99276.10
2022-12-09T10:25:39.200Z,99276.13
2022-12-09T10:30:44.936Z,99271.98
2022-12-09T10:35:48.865Z,99276.08
2022-12-09T10:41:02.912Z,99277.10
2022-12-09T10:46:25.551Z,99277.20
2022-12-09T10:51:34.743Z,99278.83
2022-12-09T10:57:00.078Z,99285.89
2022-12-09T11:02:06.950Z,99283.46
2022-12-09T11:07:11.048Z,99281.89
2022-12-09T11:12:20.247Z,99282.46
2022-12-09T11:17:28.299Z,99285.36
2022-12-09T11:22:44.367Z,99286.37
2022-12-09T11:27:56.399Z,99286.12
2022-12-09T11:33:02.241Z,99285.60
2022-12-09T11:38:34.827Z,99280.92
2022-12-09T11:43:45.608Z,99281.48
2022-12-09T11:48:59.059Z,99275.66
2022-12-09T11:54:16.908Z,99273.38
2022-12-09T11:59:24.274Z,99269.53
2022-12-09T12:04:31.517Z,99275.78
2022-12-09T12:09:56.642Z,99279.89
2022-12-09T12:15:22.684Z,99278.66
2022-12-09T12:20:49.243Z,99283.55
2022-12-09T12:26:03.820Z,99283.92
2022-12-09T12:31:14.703Z,99284.88
2022-12-09T12:36:29.722Z,99273.66
2022-12-09T12:41:47.333Z,99270.11
2022-12-09T12:47:21.771Z,99266.09
2022-12-09T12:52:55.897Z,99272.45
2022-12-09T12:58:10.792Z,99273.38
2022-12-09T13:03:46.363Z,99273.69
2022-12-09T13:09:05.539Z,99273.73
2022-12-09T13:14:16.630Z,99280.41
2022-12-09T13:19:26.293Z,99281.65
2022-12-09T13:25:01.039Z,99281.61
2022-12-09T13:30:10.462Z,99286.07
2022-12-09T13:35:23.226Z,99288.64
2022-12-09T13:40:39.041Z,99287.51
2022-12-09T13:45:45.484Z,99293.15
2022-12-09T13:50:52.008Z,99296.77
2022-12-09T13:56:04.628Z,99295.02
2022-12-09T14:01:29.749Z,99295.60
2022-12-09T14:06:55.075Z,99296.63
2022-12-09T14:12:00.971Z,99291.87
2022-12-09T14:17:19.714Z,99290.48
2022-12-09T14:22:23.236Z,99286.80
2022-12-09T14:27:29.088Z,99284.07
2022-12-09T14:32:50.747Z,99286.41
2022-12-09T14:38:09.624Z,99287.19
2022-12-09T14:43:25.944Z,99289.45
2022-12-09T14:48:55.774Z,99287.59
2022-12-09T14:54:03.279Z,99279.12
2022-12-09T14:59:10.218Z,99280.66
2022-12-09T15:04:26.983Z,99283.44
2022-12-09T15:09:30.314Z,99281.42
2022-12-09T15:14:33.625Z,99281.37
2022-12-09T15:19:59.841Z,99277.94
2022-12-09T15:25:02.602Z,99277.75
2022-12-09T15:30:23.119Z,99275.80
2022-12-09T15:35:31.209Z,99277.11
2022-12-09T15:40:36.976Z,99268.63
2022-12-09T15:45:43.564Z,99272.92
2022-12-09T15:50:51.585Z,99267.70
2022-12-09T15:56:11.894Z,99272.71
2022-12-09T16:01:42.454Z,99278.42
2022-12-09T16:06:46.573Z,99272.10
2022-12-09T16:11:53.983Z,99268.77
2022-12-09T16:17:02.208Z,99269.79
2022-12-09T16:22:11.354Z,99272.91
2022-12-09T16:27:22.345Z,99272.40
2022-12-09T16:32:28.624Z,99270.88
2022-12-09T16:37:41.389Z,99268.81
2022-12-09T16:42:45.317Z,99269.40
2022-12-09T16:47:54.223Z,99270.98
2022-12-09T16:52:59.684Z,99270.44
2022-12-09T16:58:02.893Z,99268.11
2022-12-09T17:03:11.021Z,99282.52
2022-12-09T17:08:14.354Z,99286.43
2022-12-09T17:13:17.845Z,99277.67
2022-12-09T17:18:21.254Z,99274.30
2022-12-09T17:23:24.568Z,99273.75
2022-12-09T17:28:30.355Z,99271.71
2022-12-09T17:33:33.647Z,99274.48
2022-12-09T17:38:37.263Z,99284.14
2022-12-09T17:43:41.291Z,99287.33
2022-12-09T17:48:44.813Z,99287.80
2022-12-09T17:53:50.474Z,99295.51
2022-12-09T17:59:00.985Z,99291.40
2022-12-09T18:04:09.716Z,99284.89
2022-12-09T18:09:18.425Z,99285.87
2022-12-09T18:14:21.940Z,99281.65
2022-12-09T18:19:25.357Z,99283.60
2022-12-09T18:24:29.825Z,99281.27
2022-12-09T18:29:33.310Z,99278.92
2022-12-09T20:02:12.179Z,99280.95
2022-12-09T20:07:15.645Z,99280.52
2022-12-09T20:12:18.952Z,99277.47
2022-12-09T20:51:36.831Z,99279.89
2022-12-09T20:56:43.522Z,99280.34
2022-12-09T21:01:48.564Z,99284.87
2022-12-09T21:06:52.807Z,99288.21
2022-12-09T21:11:57.374Z,99288.63
2022-12-09T21:17:01.167Z,99293.89
2022-12-09T21:47:33.012Z,99287.87
2022-12-09T21:52:36.219Z,99289.00
2022-12-09T21:57:39.737Z,99290.37
2022-12-09T22:02:44.740Z,99291.83
2022-12-09T22:07:50.140Z,99284.17
2022-12-09T22:12:55.235Z,99282.52
2022-12-09T22:17:58.719Z,99278.86
2022-12-09T22:23:02.028Z,99276.33
2022-12-09T22:28:05.657Z,99273.84
2022-12-09T22:33:09.059Z,99272.08
2022-12-09T22:38:14.706Z,99266.31
2022-12-09T22:43:18.340Z,99268.05
2022-12-09T22:48:21.752Z,99267.55
2022-12-09T22:53:25.062Z,99263.16
2022-12-09T22:58:28.578Z,99259.40
2022-12-09T23:03:31.884Z,99255.92
2022-12-09T23:08:37.247Z,99251.98
2022-12-09T23:13:41.397Z,99254.52
2022-12-09T23:18:45.409Z,99255.50
2022-12-09T23:23:48.918Z,99257.52
2022-12-09T23:28:54.190Z,99253.61
2022-12-09T23:33:58.113Z,99254.88
2022-12-09T23:39:03.372Z,99255.92
2022-12-09T23:44:11.727Z,99254.52
2022-12-09T23:49:15.610Z,99253.36
2022-12-09T23:54:19.129Z,99250.39
2022-12-09T23:59:23.666Z,99247.52
